createdAt,value
2018-10-02T00:00:13.682Z,8.01
2018-10-02T00:01:13.646Z,8.01
2018-10-02T00:02:13.627Z,8.13
2018-10-02T00:03:13.594Z,8.06
2018-10-02T00:04:13.570Z,8.05
2018-10-02T00:05:13.536Z,8.10
2018-10-02T00:06:13.513Z,8.13
2018-10-02T00:07:13.479Z,8.09
2018-10-02T00:08:13.457Z,7.94
2018-10-02T00:09:13.424Z,7.97
2018-10-02T00:10:13.403Z,7.88
2018-10-02T00:11:13.369Z,7.88
2018-10-02T00:12:13.353Z,8.03
2018-10-02T00:13:13.314Z,8.00
2018-10-02T00:14:13.296Z,7.90
2018-10-02T00:15:13.269Z,7.94
2018-10-02T00:16:13.234Z,7.87
2018-10-02T00:17:13.211Z,7.87
2018-10-02T00:18:13.182Z,7.87
2018-10-02T00:19:13.152Z,7.80
2018-10-02T00:20:13.130Z,7.76
2018-10-02T00:21:13.092Z,7.76
2018-10-02T00:22:13.073Z,7.87
2018-10-02T00:23:13.051Z,7.83
2018-10-02T00:24:13.016Z,7.76
2018-10-02T00:25:12.988Z,7.79
2018-10-02T00:26:12.955Z,7.90
2018-10-02T00:27:12.933Z,7.90
2018-10-02T00:28:12.911Z,7.90
2018-10-02T00:29:12.877Z,7.95
2018-10-02T00:30:12.853Z,7.93
2018-10-02T00:31:12.829Z,7.90
2018-10-02T00:32:12.997Z,7.80
2018-10-02T00:33:12.762Z,7.90
2018-10-02T00:34:12.740Z,7.87
2018-10-02T00:35:12.711Z,7.88
2018-10-02T00:36:12.684Z,8.01
2018-10-02T00:37:12.656Z,7.91
2018-10-02T00:38:12.629Z,7.91
2018-10-02T00:39:12.601Z,7.95
2018-10-02T00:40:12.576Z,7.93
2018-10-02T00:41:12.541Z,7.93
2018-10-02T00:42:12.515Z,7.88
2018-10-02T00:43:12.493Z,7.88
2018-10-02T00:44:12.458Z,7.98
2018-10-02T00:45:12.433Z,7.97
2018-10-02T00:46:12.417Z,7.95
2018-10-02T00:47:12.378Z,7.98
2018-10-02T00:48:12.352Z,8.01
2018-10-02T00:49:12.329Z,7.91
2018-10-02T00:50:12.295Z,7.98
2018-10-02T00:51:12.271Z,7.98
2018-10-02T00:52:12.238Z,8.00
2018-10-02T00:53:12.212Z,8.03
2018-10-02T00:54:12.188Z,8.03
2018-10-02T00:55:12.160Z,8.15
2018-10-02T00:56:12.132Z,8.10
2018-10-02T00:57:12.108Z,8.08
2018-10-02T00:58:12.071Z,8.01
2018-10-02T00:59:12.049Z,8.08
2018-10-02T01:00:12.019Z,8.09
2018-10-02T01:01:11.996Z,8.06
2018-10-02T01:02:11.963Z,8.10
2018-10-02T01:03:11.936Z,8.16
2018-10-02T01:04:11.907Z,8.13
2018-10-02T01:05:11.885Z,8.08
2018-10-02T01:06:11.850Z,8.13
2018-10-02T01:07:11.828Z,8.10
2018-10-02T01:08:11.797Z,8.12
2018-10-02T01:09:11.777Z,8.23
2018-10-02T01:10:11.744Z,8.27
2018-10-02T01:11:11.712Z,8.23
2018-10-02T01:12:11.692Z,8.31
2018-10-02T01:13:11.658Z,8.24
2018-10-02T01:14:11.633Z,8.24
2018-10-02T01:15:11.608Z,8.27
2018-10-02T01:16:11.576Z,8.27
2018-10-02T01:17:11.553Z,8.30
2018-10-02T01:18:11.523Z,8.28
2018-10-02T01:19:11.492Z,8.19
2018-10-02T01:20:11.704Z,8.24
2018-10-02T01:21:11.437Z,8.24
2018-10-02T01:22:11.414Z,8.18
2018-10-02T01:23:11.379Z,8.19
2018-10-02T01:24:11.359Z,8.27
2018-10-02T01:25:11.327Z,8.20
2018-10-02T01:26:11.305Z,8.28
2018-10-02T01:27:11.278Z,8.19
2018-10-02T01:28:11.244Z,8.28
2018-10-02T01:29:11.220Z,8.27
2018-10-02T01:30:11.188Z,8.24
2018-10-02T01:31:11.166Z,8.20
2018-10-02T01:32:11.133Z,8.19
2018-10-02T01:33:11.105Z,8.26
2018-10-02T01:34:11.089Z,8.27
2018-10-02T01:35:11.049Z,8.16
2018-10-02T01:36:11.029Z,8.16
2018-10-02T01:37:10.999Z,8.27
2018-10-02T01:38:10.971Z,8.27
2018-10-02T01:39:10.947Z,8.24
2018-10-02T01:40:10.912Z,8.27
2018-10-02T01:41:10.887Z,8.23
2018-10-02T01:42:10.865Z,8.28
2018-10-02T01:43:10.834Z,8.19
2018-10-02T01:44:10.816Z,8.26
2018-10-02T01:45:10.773Z,8.26
2018-10-02T01:46:10.753Z,8.23
2018-10-02T01:47:10.723Z,8.23
2018-10-02T01:48:10.693Z,8.19
2018-10-02T01:49:10.672Z,8.26
2018-10-02T01:50:10.638Z,8.26
2018-10-02T01:51:10.613Z,8.26
2018-10-02T01:52:10.584Z,8.23
2018-10-02T01:53:10.559Z,8.26
2018-10-02T01:54:10.525Z,8.33
2018-10-02T01:55:10.502Z,8.24
2018-10-02T01:56:10.476Z,8.30
2018-10-02T01:57:10.447Z,8.31
2018-10-02T01:58:10.421Z,8.27
2018-10-02T01:59:10.397Z,8.30
2018-10-02T02:00:10.370Z,8.30
2018-10-02T02:01:10.334Z,8.27
2018-10-02T02:02:10.312Z,8.31
2018-10-02T02:03:10.285Z,8.28
2018-10-02T02:04:10.252Z,8.28
2018-10-02T02:05:10.237Z,8.28
2018-10-02T02:06:10.196Z,8.33
2018-10-02T02:07:10.178Z,8.28
2018-10-02T02:08:10.146Z,8.24
2018-10-02T02:09:10.121Z,8.28
2018-10-02T02:10:10.088Z,8.28
2018-10-02T02:11:10.062Z,8.27
2018-10-02T02:12:10.034Z,8.31
2018-10-02T02:13:10.006Z,8.28
2018-10-02T02:14:09.976Z,8.24
2018-10-02T02:15:09.949Z,8.30
2018-10-02T02:16:09.926Z,8.24
2018-10-02T02:17:09.901Z,8.33
2018-10-02T02:18:09.875Z,8.30
2018-10-02T02:19:09.844Z,8.30
2018-10-02T02:20:09.812Z,8.30
2018-10-02T02:21:09.785Z,8.27
2018-10-02T02:22:09.765Z,8.28
2018-10-02T02:23:09.735Z,8.28
2018-10-02T02:24:09.709Z,8.30
2018-10-02T02:25:09.674Z,8.24
2018-10-02T02:26:09.654Z,8.28
2018-10-02T02:27:09.625Z,8.31
2018-10-02T02:28:09.592Z,8.36
2018-10-02T02:29:09.572Z,8.34
2018-10-02T02:30:09.540Z,8.26
2018-10-02T02:31:09.513Z,8.31
2018-10-02T02:32:09.495Z,8.30
2018-10-02T02:33:09.461Z,8.36
2018-10-02T02:34:09.426Z,8.36
2018-10-02T02:35:09.406Z,8.34
2018-10-02T02:36:09.370Z,8.34
2018-10-02T02:37:09.346Z,8.38
2018-10-02T02:38:09.321Z,8.42
2018-10-02T02:39:09.298Z,8.23
2018-10-02T02:40:09.261Z,8.30
2018-10-02T02:41:09.245Z,8.38
2018-10-02T02:42:09.205Z,8.23
2018-10-02T02:43:09.177Z,8.33
2018-10-02T02:44:09.150Z,8.42
2018-10-02T02:45:09.132Z,8.30
2018-10-02T02:46:09.103Z,8.28
2018-10-02T02:47:09.074Z,8.33
2018-10-02T02:48:09.038Z,8.28
2018-10-02T02:49:09.021Z,8.19
2018-10-02T02:50:08.988Z,8.28
2018-10-02T02:51:08.955Z,8.28
2018-10-02T02:52:08.938Z,8.26
2018-10-02T02:53:08.902Z,8.28
2018-10-02T02:54:08.887Z,8.34
2018-10-02T02:55:08.849Z,8.33
2018-10-02T02:56:08.829Z,8.33
2018-10-02T02:57:08.798Z,8.26
2018-10-02T02:58:08.766Z,8.27
2018-10-02T02:59:08.741Z,8.27
2018-10-02T03:00:08.715Z,8.28
2018-10-02T03:01:08.697Z,8.28
2018-10-02T03:02:08.659Z,8.28
2018-10-02T03:03:08.625Z,8.30
2018-10-02T03:04:08.606Z,8.26
2018-10-02T03:05:08.572Z,8.28
2018-10-02T03:06:08.551Z,8.27
2018-10-02T03:07:08.528Z,8.30
2018-10-02T03:08:08.492Z,8.28
2018-10-02T03:09:08.469Z,8.27
2018-10-02T03:10:08.433Z,8.33
2018-10-02T03:11:08.416Z,8.30
2018-10-02T03:12:08.383Z,8.28
2018-10-02T03:13:08.359Z,8.30
2018-10-02T03:14:08.330Z,8.26
2018-10-02T03:15:08.301Z,8.33
2018-10-02T03:16:08.272Z,8.30
2018-10-02T03:17:08.241Z,8.33
2018-10-02T03:18:08.215Z,8.30
2018-10-02T03:19:08.196Z,8.38
2018-10-02T03:20:08.159Z,8.36
2018-10-02T03:21:08.132Z,8.41
2018-10-02T03:22:08.114Z,8.31
2018-10-02T03:23:08.082Z,8.33
2018-10-02T03:24:08.059Z,8.42
2018-10-02T03:25:08.031Z,8.33
2018-10-02T03:26:07.995Z,8.33
2018-10-02T03:27:07.975Z,8.38
2018-10-02T03:28:07.949Z,8.28
2018-10-02T03:29:07.916Z,8.27
2018-10-02T03:30:07.887Z,8.30
2018-10-02T03:31:07.866Z,8.33
2018-10-02T03:32:07.832Z,8.28
2018-10-02T03:33:07.811Z,8.33
2018-10-02T03:34:07.781Z,8.30
2018-10-02T03:35:07.751Z,8.27
2018-10-02T03:36:07.721Z,8.26
2018-10-02T03:37:07.698Z,8.28
2018-10-02T03:38:07.665Z,8.31
2018-10-02T03:39:07.638Z,8.31
2018-10-02T03:40:07.613Z,8.27
2018-10-02T03:41:07.584Z,8.28
2018-10-02T03:42:07.562Z,8.30
2018-10-02T03:43:07.536Z,8.33
2018-10-02T03:44:07.498Z,8.26
2018-10-02T03:45:07.476Z,8.31
2018-10-02T03:46:07.447Z,8.23
2018-10-02T03:47:07.416Z,8.28
2018-10-02T03:48:07.390Z,8.33
2018-10-02T03:49:07.370Z,8.42
2018-10-02T03:50:07.336Z,8.24
2018-10-02T03:51:07.306Z,8.31
2018-10-02T03:52:07.285Z,8.36
2018-10-02T03:53:07.262Z,8.27
2018-10-02T03:54:07.227Z,8.27
2018-10-02T03:55:07.202Z,8.28
2018-10-02T03:56:07.172Z,8.26
2018-10-02T03:57:07.146Z,8.26
2018-10-02T03:58:07.120Z,8.31
2018-10-02T03:59:07.085Z,8.26
2018-10-02T04:00:07.066Z,8.34
2018-10-02T04:01:07.037Z,8.33
2018-10-02T04:02:07.023Z,8.27
2018-10-02T04:03:06.984Z,8.33
2018-10-02T04:04:06.956Z,8.28
2018-10-02T04:05:06.928Z,8.28
2018-10-02T04:06:06.897Z,8.30
2018-10-02T04:07:06.875Z,8.31
2018-10-02T04:08:06.846Z,8.31
2018-10-02T04:09:06.812Z,8.34
2018-10-02T04:10:06.787Z,8.30
2018-10-02T04:11:06.760Z,8.33
2018-10-02T04:12:06.734Z,8.24
2018-10-02T04:13:06.756Z,8.27
2018-10-02T04:14:06.676Z,8.23
2018-10-02T04:15:06.651Z,8.34
2018-10-02T04:16:06.621Z,8.30
2018-10-02T04:17:06.590Z,8.41
2018-10-02T04:18:06.569Z,8.31
2018-10-02T04:19:06.540Z,8.48
2018-10-02T04:20:06.513Z,8.46
2018-10-02T04:21:06.489Z,8.42
2018-10-02T04:22:06.455Z,8.51
2018-10-02T04:23:06.422Z,8.38
2018-10-02T04:24:06.404Z,8.45
2018-10-02T04:25:06.373Z,8.44
2018-10-02T04:26:06.350Z,8.37
2018-10-02T04:27:06.322Z,8.38
2018-10-02T04:28:06.451Z,8.45
2018-10-02T04:29:06.271Z,8.46
2018-10-02T04:30:06.232Z,8.37
2018-10-02T04:31:06.214Z,8.41
2018-10-02T04:32:06.181Z,8.41
2018-10-02T04:33:06.157Z,8.44
2018-10-02T04:34:06.187Z,8.46
2018-10-02T04:35:06.094Z,8.44
2018-10-02T04:36:06.072Z,8.41
2018-10-02T04:37:06.036Z,8.37
2018-10-02T04:38:06.017Z,8.42
2018-10-02T04:39:05.995Z,8.37
2018-10-02T04:40:05.953Z,8.38
2018-10-02T04:41:05.940Z,8.41
2018-10-02T04:42:05.900Z,8.44
2018-10-02T04:43:05.875Z,8.37
2018-10-02T04:44:05.857Z,8.42
2018-10-02T04:45:05.817Z,8.45
2018-10-02T04:46:05.801Z,8.44
2018-10-02T04:47:05.769Z,8.41
2018-10-02T04:48:05.737Z,8.41
2018-10-02T04:49:05.714Z,8.37
2018-10-02T04:50:05.683Z,8.49
2018-10-02T04:51:05.654Z,8.38
2018-10-02T04:52:05.626Z,8.45
2018-10-02T04:53:05.605Z,8.42
2018-10-02T04:54:05.573Z,8.37
2018-10-02T04:55:05.623Z,8.37
2018-10-02T04:56:05.612Z,8.53
2018-10-02T04:57:05.491Z,8.36
2018-10-02T04:58:05.461Z,8.44
2018-10-02T04:59:05.442Z,8.44
2018-10-02T05:00:05.403Z,8.42
2018-10-02T05:01:05.387Z,8.37
2018-10-02T05:02:05.353Z,8.44
2018-10-02T05:03:05.322Z,8.48
2018-10-02T05:04:05.305Z,8.48
2018-10-02T05:05:05.276Z,8.49
2018-10-02T05:06:05.246Z,8.46
2018-10-02T05:07:05.224Z,8.52
2018-10-02T05:08:05.194Z,8.53
2018-10-02T05:09:05.156Z,8.51
2018-10-02T05:10:05.138Z,8.56
2018-10-02T05:11:05.112Z,8.49
2018-10-02T05:12:05.075Z,8.49
2018-10-02T05:13:05.053Z,8.52
2018-10-02T05:14:05.084Z,8.52
2018-10-02T05:15:04.994Z,8.53
2018-10-02T05:16:04.974Z,8.51
2018-10-02T05:17:04.944Z,8.49
2018-10-02T05:18:04.909Z,8.49
2018-10-02T05:19:04.888Z,8.61
2018-10-02T05:20:04.855Z,8.55
2018-10-02T05:21:04.826Z,8.61
2018-10-02T05:22:04.811Z,8.60
2018-10-02T05:23:04.775Z,8.61
2018-10-02T05:24:04.748Z,8.49
2018-10-02T05:25:04.725Z,8.67
2018-10-02T05:26:04.688Z,8.67
2018-10-02T05:27:04.700Z,8.67
2018-10-02T05:28:04.637Z,8.71
2018-10-02T05:29:04.612Z,8.70
2018-10-02T05:30:04.600Z,8.67
2018-10-02T05:31:04.554Z,8.70
2018-10-02T05:32:04.529Z,8.73
2018-10-02T05:33:04.498Z,8.71
2018-10-02T05:34:04.474Z,8.76
2018-10-02T05:35:04.525Z,8.71
2018-10-02T05:36:04.416Z,8.71
2018-10-02T05:37:04.397Z,8.69
2018-10-02T05:38:04.360Z,8.74
2018-10-02T05:39:04.333Z,8.74
2018-10-02T05:40:04.312Z,8.73
2018-10-02T05:41:04.278Z,8.84
2018-10-02T05:42:04.261Z,8.74
2018-10-02T05:43:04.232Z,8.84
2018-10-02T05:44:04.199Z,8.81
2018-10-02T05:45:04.177Z,8.84
2018-10-02T05:46:04.140Z,8.82
2018-10-02T05:47:04.118Z,8.84
2018-10-02T05:48:04.087Z,8.87
2018-10-02T05:49:04.067Z,8.85
2018-10-02T05:50:04.042Z,8.79
2018-10-02T05:51:04.012Z,8.87
2018-10-02T05:52:03.980Z,8.88
2018-10-02T05:53:03.952Z,8.91
2018-10-02T05:54:03.921Z,8.81
2018-10-02T05:55:03.900Z,8.84
2018-10-02T05:56:03.866Z,8.88
2018-10-02T05:57:03.848Z,8.85
2018-10-02T05:58:03.816Z,8.92
2018-10-02T05:59:03.788Z,8.85
2018-10-02T06:00:03.757Z,8.78
2018-10-02T06:01:03.737Z,8.85
2018-10-02T06:02:03.711Z,8.82
2018-10-02T06:03:03.675Z,8.71
2018-10-02T06:04:03.652Z,8.79
2018-10-02T06:05:03.625Z,8.82
2018-10-02T06:06:03.590Z,8.76
2018-10-02T06:07:03.568Z,8.71
2018-10-02T06:08:03.537Z,8.74
2018-10-02T06:09:03.526Z,8.70
2018-10-02T06:10:03.589Z,8.71
2018-10-02T06:11:03.455Z,8.67
2018-10-02T06:12:03.436Z,8.63
2018-10-02T06:13:03.401Z,8.70
2018-10-02T06:14:03.375Z,8.66
2018-10-02T06:15:03.354Z,8.66
2018-10-02T06:16:03.316Z,8.70
2018-10-02T06:17:03.307Z,8.61
2018-10-02T06:18:03.300Z,8.60
2018-10-02T06:19:03.242Z,8.63
2018-10-02T06:20:03.213Z,8.56
2018-10-02T06:21:03.179Z,8.61
2018-10-02T06:22:03.160Z,8.60
2018-10-02T06:23:03.127Z,8.66
2018-10-02T06:24:03.108Z,8.56
2018-10-02T06:25:03.085Z,8.58
2018-10-02T06:26:03.042Z,8.52
2018-10-02T06:27:03.021Z,8.53
2018-10-02T06:28:02.986Z,8.51
2018-10-02T06:29:02.981Z,8.53
2018-10-02T06:30:02.935Z,8.49
2018-10-02T06:31:02.904Z,8.58
2018-10-02T06:32:02.882Z,8.49
2018-10-02T06:33:02.846Z,8.56
2018-10-02T06:34:02.829Z,8.58
2018-10-02T06:35:02.801Z,8.58
2018-10-02T06:36:02.764Z,8.58
2018-10-02T06:37:02.748Z,8.55
2018-10-02T06:38:02.779Z,8.52
2018-10-02T06:39:02.704Z,8.56
2018-10-02T06:40:02.656Z,8.53
2018-10-02T06:41:02.637Z,8.58
2018-10-02T06:42:02.611Z,8.53
2018-10-02T06:43:02.572Z,8.58
2018-10-02T06:44:02.555Z,8.55
2018-10-02T06:45:02.580Z,8.56
2018-10-02T06:46:02.500Z,8.58
2018-10-02T06:47:02.464Z,8.48
2018-10-02T06:48:02.440Z,8.51
2018-10-02T06:49:02.408Z,8.53
2018-10-02T06:50:02.455Z,8.55
2018-10-02T06:51:02.427Z,8.53
2018-10-02T06:52:02.441Z,8.61
2018-10-02T06:53:02.303Z,8.60
2018-10-02T06:54:02.270Z,8.69
2018-10-02T06:55:02.267Z,8.51
2018-10-02T06:56:02.214Z,8.63
2018-10-02T06:57:02.238Z,8.63
2018-10-02T06:58:02.165Z,8.64
2018-10-02T06:59:02.132Z,8.58
2018-10-02T07:00:02.111Z,8.60
2018-10-02T07:01:02.082Z,8.64
2018-10-02T07:02:02.054Z,8.64
2018-10-02T07:03:02.099Z,8.67
2018-10-02T07:04:01.998Z,8.71
2018-10-02T07:05:01.967Z,8.66
2018-10-02T07:06:01.945Z,8.71
2018-10-02T07:07:01.912Z,8.70
2018-10-02T07:08:01.889Z,8.76
2018-10-02T07:09:01.922Z,8.71
2018-10-02T07:10:01.831Z,8.70
2018-10-02T07:11:01.824Z,8.70
2018-10-02T07:12:01.775Z,8.78
2018-10-02T07:13:01.759Z,8.81
2018-10-02T07:14:01.716Z,8.60
2018-10-02T07:15:01.729Z,8.81
2018-10-02T07:16:01.665Z,8.78
2018-10-02T07:17:01.639Z,8.71
2018-10-02T07:18:01.619Z,8.87
2018-10-02T07:19:01.581Z,8.79
2018-10-02T07:20:01.563Z,8.81
2018-10-02T07:21:01.626Z,8.82
2018-10-02T07:22:01.500Z,8.82
2018-10-02T07:23:01.476Z,8.88
2018-10-02T07:24:01.444Z,8.85
2018-10-02T07:25:01.413Z,8.85
2018-10-02T07:26:01.400Z,8.81
2018-10-02T07:27:01.389Z,8.82
2018-10-02T07:28:01.455Z,8.88
2018-10-02T07:29:01.315Z,8.84
2018-10-02T07:30:01.307Z,8.79
2018-10-02T07:31:01.310Z,8.88
2018-10-02T07:32:01.225Z,8.84
2018-10-02T07:33:01.227Z,8.82
2018-10-02T07:34:01.259Z,8.82
2018-10-02T07:35:01.141Z,8.84
2018-10-02T07:36:01.113Z,8.85
2018-10-02T07:37:01.123Z,8.84
2018-10-02T07:38:01.058Z,8.85
2018-10-02T07:39:01.060Z,8.81
2018-10-02T07:40:01.010Z,8.85
2018-10-02T07:41:00.977Z,8.87
2018-10-02T07:42:01.003Z,8.79
2018-10-02T07:43:00.924Z,8.82
2018-10-02T07:44:00.888Z,8.87
2018-10-02T07:45:00.976Z,8.85
2018-10-02T07:46:00.841Z,8.92
2018-10-02T07:47:00.806Z,8.85
2018-10-02T07:48:00.860Z,8.81
2018-10-02T07:49:00.762Z,8.88
2018-10-02T07:50:00.736Z,8.88
2018-10-02T07:51:00.766Z,8.87
2018-10-02T07:52:00.679Z,9.03
2018-10-02T07:53:00.643Z,8.95
2018-10-02T07:54:00.632Z,9.00
2018-10-02T07:55:00.591Z,9.00
2018-10-02T07:56:00.561Z,8.97
2018-10-02T07:57:00.571Z,8.97
2018-10-02T07:58:00.506Z,9.03
2018-10-02T07:59:00.481Z,9.03
2018-10-02T08:00:00.494Z,9.03
2018-10-02T08:01:00.428Z,9.04
2018-10-02T08:02:00.397Z,9.03
2018-10-02T08:03:00.449Z,9.03
2018-10-02T08:04:00.351Z,9.03
2018-10-02T08:05:00.389Z,9.04
2018-10-02T08:06:00.333Z,9.06
2018-10-02T08:07:00.257Z,9.02
2018-10-02T08:08:00.312Z,9.06
2018-10-02T08:09:00.283Z,9.02
2018-10-02T08:10:00.176Z,9.02
2018-10-02T08:11:00.156Z,9.04
2018-10-02T08:12:00.209Z,9.03
2018-10-02T08:13:00.098Z,8.97
2018-10-02T08:14:00.068Z,9.02
2018-10-02T08:15:00.091Z,9.00
2018-10-02T08:16:00.019Z,9.00
2018-10-02T08:16:59.984Z,9.02
2018-10-02T08:18:00.023Z,9.02
2018-10-02T08:18:59.931Z,9.03
2018-10-02T08:19:59.970Z,9.00
2018-10-02T08:20:59.960Z,8.99
2018-10-02T08:21:59.857Z,8.99
2018-10-02T08:22:59.821Z,8.92
2018-10-02T08:23:59.870Z,9.10
2018-10-02T08:24:59.766Z,9.08
2018-10-02T08:25:59.735Z,9.14
2018-10-02T08:26:59.738Z,9.10
2018-10-02T08:27:59.679Z,9.10
2018-10-02T08:28:59.668Z,9.11
2018-10-02T08:29:59.716Z,9.04
2018-10-02T08:30:59.603Z,9.14
2018-10-02T08:31:59.574Z,9.18
2018-10-02T08:32:59.562Z,9.14
2018-10-02T08:33:59.512Z,9.10
2018-10-02T08:34:59.492Z,9.13
2018-10-02T08:35:59.667Z,9.22
2018-10-02T08:36:59.436Z,9.16
2018-10-02T08:37:59.412Z,9.21
2018-10-02T08:38:59.487Z,9.13
2018-10-02T08:39:59.350Z,9.04
2018-10-02T08:40:59.323Z,9.14
2018-10-02T08:41:59.338Z,9.11
2018-10-02T08:42:59.265Z,9.11
2018-10-02T08:43:59.341Z,9.06
2018-10-02T08:44:59.224Z,9.06
2018-10-02T08:45:59.185Z,9.13
2018-10-02T08:46:59.162Z,9.11
2018-10-02T08:47:59.166Z,9.28
2018-10-02T08:48:59.106Z,9.18
2018-10-02T08:49:59.081Z,9.14
2018-10-02T08:50:59.116Z,9.21
2018-10-02T08:51:59.085Z,9.23
2018-10-02T08:52:59.000Z,9.18
2018-10-02T08:53:58.967Z,9.14
2018-10-02T08:54:58.953Z,9.21
2018-10-02T08:55:58.912Z,9.22
2018-10-02T08:56:58.881Z,9.19
2018-10-02T08:57:58.866Z,9.28
2018-10-02T08:58:58.828Z,9.26
2018-10-02T08:59:58.805Z,9.28
2018-10-02T09:00:58.839Z,9.19
2018-10-02T09:01:58.744Z,9.21
2018-10-02T09:02:58.795Z,9.10
2018-10-02T09:03:58.690Z,9.18
2018-10-02T09:04:58.664Z,9.10
2018-10-02T09:05:58.638Z,9.13
2018-10-02T09:06:58.666Z,9.14
2018-10-02T09:07:58.586Z,9.26
2018-10-02T09:08:58.556Z,9.29
2018-10-02T09:09:58.533Z,9.34
2018-10-02T09:10:58.502Z,9.32
2018-10-02T09:11:58.467Z,9.36
2018-10-02T09:12:58.476Z,9.39
2018-10-02T09:13:58.480Z,9.32
2018-10-02T09:14:58.385Z,9.47
2018-10-02T09:15:58.592Z,9.34
2018-10-02T09:16:58.333Z,9.37
2018-10-02T09:17:58.314Z,9.36
2018-10-02T09:18:58.338Z,9.43
2018-10-02T09:19:58.254Z,9.29
2018-10-02T09:20:58.227Z,9.41
2018-10-02T09:21:58.230Z,9.47
2018-10-02T09:22:58.173Z,9.48
2018-10-02T09:23:58.179Z,9.48
2018-10-02T09:24:58.188Z,9.44
2018-10-02T09:25:58.088Z,9.48
2018-10-02T09:26:58.065Z,9.44
2018-10-02T09:27:58.108Z,9.51
2018-10-02T09:28:58.000Z,9.54
2018-10-02T09:29:57.980Z,9.50
2018-10-02T09:30:58.081Z,9.48
2018-10-02T09:31:57.929Z,9.41
2018-10-02T09:32:57.905Z,9.56
2018-10-02T09:33:57.936Z,9.55
2018-10-02T09:34:57.844Z,9.64
2018-10-02T09:35:57.807Z,9.58
2018-10-02T09:36:57.816Z,9.56
2018-10-02T09:37:57.757Z,9.56
2018-10-02T09:38:57.728Z,9.61
2018-10-02T09:39:57.771Z,9.64
2018-10-02T09:40:57.682Z,9.65
2018-10-02T09:41:57.660Z,9.58
2018-10-02T09:42:57.684Z,9.69
2018-10-02T09:43:57.611Z,9.72
2018-10-02T09:44:57.575Z,9.74
2018-10-02T09:45:57.582Z,9.79
2018-10-02T09:46:57.520Z,9.86
2018-10-02T09:47:57.496Z,9.86
2018-10-02T09:48:57.499Z,9.82
2018-10-02T09:49:57.468Z,9.83
2018-10-02T09:50:57.408Z,9.83
2018-10-02T09:51:57.395Z,9.83
2018-10-02T09:52:57.347Z,9.87
2018-10-02T09:53:57.320Z,9.73
2018-10-02T09:54:57.367Z,9.83
2018-10-02T09:55:57.260Z,9.83
2018-10-02T09:56:57.367Z,9.80
2018-10-02T09:57:57.212Z,9.79
2018-10-02T09:58:57.183Z,9.92
2018-10-02T09:59:57.154Z,9.87
2018-10-02T10:00:57.152Z,9.94
2018-10-02T10:01:57.107Z,9.95
2018-10-02T10:02:57.108Z,10.04
2018-10-02T10:03:57.051Z,10.01
2018-10-02T10:04:57.025Z,10.05
2018-10-02T10:05:56.986Z,9.98
2018-10-02T10:06:56.971Z,10.01
2018-10-02T10:07:56.933Z,10.05
2018-10-02T10:08:56.908Z,10.09
2018-10-02T10:09:56.893Z,10.09
2018-10-02T10:10:56.851Z,10.02
2018-10-02T10:11:56.831Z,10.12
2018-10-02T10:12:56.807Z,10.09
2018-10-02T10:13:56.769Z,10.13
2018-10-02T10:14:56.750Z,10.20
2018-10-02T10:15:56.717Z,10.10
2018-10-02T10:16:56.775Z,10.15
2018-10-02T10:17:56.660Z,10.12
2018-10-02T10:18:56.637Z,10.16
2018-10-02T10:19:56.616Z,10.10
2018-10-02T10:20:56.580Z,10.17
2018-10-02T10:21:56.559Z,10.04
2018-10-02T10:22:56.597Z,10.09
2018-10-02T10:23:56.504Z,10.04
2018-10-02T10:24:56.476Z,10.05
2018-10-02T10:25:56.456Z,10.09
2018-10-02T10:26:56.431Z,10.09
2018-10-02T10:27:56.390Z,10.05
2018-10-02T10:28:56.384Z,9.97
2018-10-02T10:29:56.331Z,10.04
2018-10-02T10:30:56.316Z,10.05
2018-10-02T10:31:56.292Z,10.10
2018-10-02T10:32:56.257Z,10.01
2018-10-02T10:33:56.233Z,10.04
2018-10-02T10:34:56.226Z,9.97
2018-10-02T10:35:56.173Z,10.04
2018-10-02T10:36:56.145Z,9.97
2018-10-02T10:37:56.117Z,10.05
2018-10-02T10:38:56.087Z,10.12
2018-10-02T10:39:56.122Z,10.05
2018-10-02T10:40:56.058Z,10.07
2018-10-02T10:41:56.001Z,10.12
2018-10-02T10:42:55.982Z,9.98
2018-10-02T10:43:55.955Z,10.04
2018-10-02T10:44:55.925Z,10.07
2018-10-02T10:45:55.895Z,10.07
2018-10-02T10:46:55.939Z,9.99
2018-10-02T10:47:55.843Z,10.10
2018-10-02T10:48:55.820Z,10.04
2018-10-02T10:49:55.783Z,10.12
2018-10-02T10:50:55.761Z,10.04
2018-10-02T10:51:55.733Z,10.19
2018-10-02T10:52:55.717Z,10.12
2018-10-02T10:53:55.685Z,10.12
2018-10-02T10:54:55.649Z,10.12
2018-10-02T10:55:55.639Z,10.12
2018-10-02T10:56:55.594Z,10.19
2018-10-02T10:57:55.572Z,10.16
2018-10-02T10:58:55.570Z,10.12
2018-10-02T10:59:55.511Z,10.13
2018-10-02T11:00:55.484Z,10.19
2018-10-02T11:01:55.460Z,10.15
2018-10-02T11:02:55.468Z,10.13
2018-10-02T11:03:55.405Z,10.20
2018-10-02T11:04:55.382Z,10.10
2018-10-02T11:05:55.349Z,10.25
2018-10-02T11:06:55.322Z,10.19
2018-10-02T11:07:55.290Z,10.23
2018-10-02T11:08:55.275Z,10.23
2018-10-02T11:09:55.237Z,10.23
2018-10-02T11:10:55.216Z,10.23
2018-10-02T11:11:55.197Z,10.26
2018-10-02T11:12:55.161Z,10.25
2018-10-02T11:13:55.175Z,10.30
2018-10-02T11:14:55.104Z,10.38
2018-10-02T11:15:55.074Z,10.42
2018-10-02T11:16:55.046Z,10.33
2018-10-02T11:17:55.102Z,10.35
2018-10-02T11:18:55.034Z,10.41
2018-10-02T11:19:54.974Z,10.37
2018-10-02T11:20:54.935Z,10.44
2018-10-02T11:21:54.908Z,10.40
2018-10-02T11:22:54.886Z,10.38
2018-10-02T11:23:54.869Z,10.46
2018-10-02T11:24:54.830Z,10.48
2018-10-02T11:25:54.889Z,10.38
2018-10-02T11:26:54.779Z,10.51
2018-10-02T11:27:54.745Z,10.48
2018-10-02T11:28:54.720Z,10.40
2018-10-02T11:29:54.732Z,10.51
2018-10-02T11:30:54.663Z,10.54
2018-10-02T11:31:54.644Z,10.59
2018-10-02T11:32:54.652Z,10.57
2018-10-02T11:33:54.586Z,10.61
2018-10-02T11:34:54.561Z,10.60
2018-10-02T11:35:54.527Z,10.64
2018-10-02T11:36:54.503Z,10.63
2018-10-02T11:37:54.482Z,10.67
2018-10-02T11:38:54.448Z,10.71
2018-10-02T11:39:54.419Z,10.69
2018-10-02T11:40:54.394Z,10.72
2018-10-02T11:41:54.365Z,10.68
2018-10-02T11:42:54.336Z,10.68
2018-10-02T11:43:54.414Z,10.72
2018-10-02T11:44:54.354Z,10.72
2018-10-02T11:45:54.257Z,10.69
2018-10-02T11:46:54.234Z,10.76
2018-10-02T11:47:54.209Z,10.75
2018-10-02T11:48:54.174Z,10.81
2018-10-02T11:49:54.226Z,10.78
2018-10-02T11:50:54.183Z,10.87
2018-10-02T11:51:54.092Z,10.87
2018-10-02T11:52:54.065Z,10.84
2018-10-02T11:53:54.037Z,10.92
2018-10-02T11:54:54.010Z,11.05
2018-10-02T11:55:53.982Z,10.97
2018-10-02T11:56:53.957Z,11.00
2018-10-02T11:57:53.926Z,11.08
2018-10-02T11:58:53.903Z,11.05
2018-10-02T11:59:53.871Z,10.92
2018-10-02T12:00:53.892Z,10.94
2018-10-02T12:01:53.825Z,11.05
2018-10-02T12:02:53.794Z,11.18
2018-10-02T12:03:53.770Z,11.07
2018-10-02T12:04:53.792Z,11.12
2018-10-02T12:05:53.708Z,11.18
2018-10-02T12:06:53.768Z,11.25
2018-10-02T12:07:53.656Z,11.11
2018-10-02T12:08:53.673Z,11.12
2018-10-02T12:09:53.599Z,11.12
2018-10-02T12:10:53.572Z,11.12
2018-10-02T12:11:53.541Z,11.17
2018-10-02T12:12:53.571Z,11.26
2018-10-02T12:13:53.533Z,11.23
2018-10-02T12:14:53.491Z,11.25
2018-10-02T12:15:53.439Z,11.25
2018-10-02T12:16:53.416Z,11.26
2018-10-02T12:17:53.377Z,11.33
2018-10-02T12:18:53.353Z,11.44
2018-10-02T12:19:53.629Z,11.32
2018-10-02T12:20:53.300Z,11.44
2018-10-02T12:21:53.276Z,11.45
2018-10-02T12:22:53.245Z,11.40
2018-10-02T12:23:53.222Z,11.48
2018-10-02T12:24:53.190Z,11.45
2018-10-02T12:25:53.161Z,11.44
2018-10-02T12:26:53.140Z,11.47
2018-10-02T12:27:53.119Z,11.57
2018-10-02T12:28:53.087Z,11.57
2018-10-02T12:29:53.055Z,11.55
2018-10-02T12:30:53.035Z,11.57
2018-10-02T12:31:53.019Z,11.60
2018-10-02T12:32:52.972Z,11.60
2018-10-02T12:33:52.953Z,11.54
2018-10-02T12:34:52.924Z,11.59
2018-10-02T12:35:52.890Z,11.62
2018-10-02T12:36:52.875Z,11.62
2018-10-02T12:37:52.837Z,11.66
2018-10-02T12:38:52.853Z,11.72
2018-10-02T12:39:52.785Z,11.78
2018-10-02T12:40:52.757Z,11.75
2018-10-02T12:41:52.731Z,11.75
2018-10-02T12:42:52.701Z,11.87
2018-10-02T12:43:52.681Z,11.78
2018-10-02T12:44:52.654Z,11.87
2018-10-02T12:45:52.621Z,11.81
2018-10-02T12:46:52.648Z,11.91
2018-10-02T12:47:52.568Z,11.86
2018-10-02T12:48:52.536Z,11.84
2018-10-02T12:49:52.523Z,11.88
2018-10-02T12:50:52.486Z,11.91
2018-10-02T12:51:52.462Z,11.83
2018-10-02T12:52:52.602Z,11.83
2018-10-02T12:53:53.107Z,11.83
2018-10-02T12:54:52.381Z,11.87
2018-10-02T12:55:52.352Z,11.88
2018-10-02T12:56:52.327Z,11.91
2018-10-02T12:57:52.296Z,11.94
2018-10-02T12:58:52.274Z,11.95
2018-10-02T12:59:52.247Z,11.95
2018-10-02T13:00:52.217Z,11.99
2018-10-02T13:01:52.194Z,12.06
2018-10-02T13:02:52.161Z,12.06
2018-10-02T13:03:52.137Z,12.03
2018-10-02T13:04:52.115Z,12.07
2018-10-02T13:05:52.087Z,12.09
2018-10-02T13:06:52.110Z,12.10
2018-10-02T13:07:52.030Z,12.02
2018-10-02T13:08:52.008Z,12.06
2018-10-02T13:09:51.979Z,12.06
2018-10-02T13:10:51.953Z,12.07
2018-10-02T13:11:51.919Z,12.07